Time;durP1;ratioP1;P1;durP2;ratioP2;P2;SDS_P1;SDS_P2;PMS_P1;PMS_P2;Temp;Humidity;BMP_temperature;BMP_pressure;BME280_temperature;BME280_humidity;BME280_pressure;Samples;Min_cycle;Max_cycle;Signal;HPM_P1;HPM_P2
2024/01/21 00:01:36;;;;;;;27.23;10.73;;;;;;;;;;6225795;28;20067;-67
2024/01/21 00:04:38;;;;;;;27.52;11.15;;;;;;;;;;6232405;28;20485;-67
2024/01/21 00:07:38;;;;;;;25.13;10.98;;;;;;;;;;6230531;28;20053;-67
2024/01/21 00:10:39;;;;;;;28.00;10.77;;;;;;;;;;6228183;28;20501;-66
2024/01/21 00:13:40;;;;;;;30.88;12.30;;;;;;;;;;6225842;28;20584;-66
2024/01/21 00:16:40;;;;;;;30.42;10.70;;;;;;;;;;6229006;28;20715;-67
2024/01/21 00:19:41;;;;;;;25.55;10.05;;;;;;;;;;6232354;28;20195;-68
2024/01/21 00:22:42;;;;;;;23.30;10.52;;;;;;;;;;6224354;28;20734;-68
2024/01/21 00:25:43;;;;;;;26.77;10.20;;;;;;;;;;6229077;28;20436;-68
2024/01/21 00:28:46;;;;;;;28.23;10.90;;;;;;;;;;6204120;28;20108;-67
2024/01/21 00:31:47;;;;;;;26.88;9.85;;;;;;;;;;6199427;28;20045;-68
2024/01/21 00:34:48;;;;;;;28.55;10.13;;;;;;;;;;6204173;28;20188;-69
2024/01/21 00:37:49;;;;;;;25.88;9.35;;;;;;;;;;6206670;28;20053;-68
2024/01/21 00:40:50;;;;;;;25.05;9.55;;;;;;;;;;6202729;28;20045;-68
2024/01/21 00:43:51;;;;;;;26.15;9.38;;;;;;;;;;6199953;28;20572;-67
2024/01/21 00:46:51;;;;;;;23.23;9.50;;;;;;;;;;6201890;28;20133;-68
2024/01/21 00:49:52;;;;;;;21.95;9.35;;;;;;;;;;6203983;28;20425;-67
2024/01/21 00:52:53;;;;;;;28.60;10.00;;;;;;;;;;6200367;28;20262;-68
2024/01/21 00:55:55;;;;;;;22.67;9.60;;;;;;;;;;6203508;28;20046;-68
2024/01/21 00:58:56;;;;;;;20.27;9.32;;;;;;;;;;6203929;28;20050;-68
2024/01/21 01:01:57;;;;;;;27.05;10.50;;;;;;;;;;6201055;28;20208;-68
2024/01/21 01:04:57;;;;;;;24.77;9.60;;;;;;;;;;6202245;28;20061;-68
2024/01/21 01:07:58;;;;;;;26.05;10.55;;;;;;;;;;6211173;28;20100;-68
2024/01/21 01:10:59;;;;;;;24.13;9.38;;;;;;;;;;6207688;28;20116;-68
2024/01/21 01:14:00;;;;;;;26.88;9.77;;;;;;;;;;6207333;28;20049;-68
2024/01/21 01:17:00;;;;;;;29.17;10.57;;;;;;;;;;6208724;28;20484;-68
2024/01/21 01:20:02;;;;;;;30.38;9.90;;;;;;;;;;6209266;28;20080;-68
2024/01/21 01:23:05;;;;;;;26.13;10.00;;;;;;;;;;6207263;28;20053;-68
2024/01/21 01:26:07;;;;;;;27.08;10.75;;;;;;;;;;6213105;28;20061;-69
2024/01/21 01:29:08;;;;;;;25.35;10.20;;;;;;;;;;6234069;28;20160;-68
2024/01/21 01:32:09;;;;;;;28.48;11.10;;;;;;;;;;6230814;28;20492;-69
2024/01/21 01:35:09;;;;;;;27.30;10.20;;;;;;;;;;6232567;28;20053;-69
2024/01/21 01:38:14;;;;;;;22.83;10.68;;;;;;;;;;6235611;28;20053;-68
2024/01/21 01:41:15;;;;;;;25.10;10.77;;;;;;;;;;6232664;28;21162;-68
2024/01/21 01:44:16;;;;;;;30.90;11.40;;;;;;;;;;6239818;28;20049;-68
2024/01/21 01:47:17;;;;;;;28.83;11.25;;;;;;;;;;6231415;28;20045;-68
2024/01/21 01:50:19;;;;;;;27.70;11.25;;;;;;;;;;6234283;28;20062;-69
2024/01/21 01:53:19;;;;;;;30.42;11.63;;;;;;;;;;6245516;28;20060;-68
2024/01/21 01:56:22;;;;;;;26.83;11.68;;;;;;;;;;6232151;28;20427;-68
2024/01/21 01:59:26;;;;;;;26.75;11.43;;;;;;;;;;6231840;28;20077;-67
2024/01/21 02:02:27;;;;;;;30.40;11.90;;;;;;;;;;6227971;28;20060;-68
2024/01/21 02:05:28;;;;;;;30.58;11.43;;;;;;;;;;6233287;28;20049;-68
2024/01/21 02:08:29;;;;;;;30.52;11.73;;;;;;;;;;6236838;28;20451;-67
2024/01/21 02:11:31;;;;;;;27.85;12.13;;;;;;;;;;6242318;28;20053;-67
2024/01/21 02:14:32;;;;;;;32.28;14.00;;;;;;;;;;6241925;28;20052;-67
2024/01/21 02:17:33;;;;;;;34.85;13.40;;;;;;;;;;6241980;28;20461;-68
2024/01/21 02:20:35;;;;;;;31.73;13.05;;;;;;;;;;6241259;28;20037;-67
2024/01/21 02:23:36;;;;;;;29.35;12.65;;;;;;;;;;6241166;28;20045;-67
2024/01/21 02:26:37;;;;;;;32.50;13.68;;;;;;;;;;6240650;28;20062;-67
2024/01/21 02:29:37;;;;;;;28.00;12.63;;;;;;;;;;6240966;28;20041;-67
2024/01/21 02:32:38;;;;;;;31.05;12.50;;;;;;;;;;6241211;28;20046;-67
2024/01/21 02:35:39;;;;;;;30.15;12.55;;;;;;;;;;6250790;28;20060;-67
2024/01/21 02:38:40;;;;;;;30.75;12.40;;;;;;;;;;6248468;28;20046;-67
2024/01/21 02:41:40;;;;;;;29.75;12.38;;;;;;;;;;6239802;28;20056;-68
2024/01/21 02:44:41;;;;;;;28.55;13.07;;;;;;;;;;6241175;28;20045;-68
2024/01/21 02:47:42;;;;;;;29.25;11.73;;;;;;;;;;6253599;28;20041;-68
2024/01/21 02:50:43;;;;;;;32.47;12.88;;;;;;;;;;6251594;28;20075;-67
2024/01/21 02:53:43;;;;;;;34.20;12.73;;;;;;;;;;6249070;28;20064;-68
2024/01/21 02:56:44;;;;;;;32.90;12.88;;;;;;;;;;6249100;28;20049;-68
2024/01/21 02:59:45;;;;;;;30.25;14.15;;;;;;;;;;6254420;28;20041;-69
2024/01/21 03:02:47;;;;;;;46.70;20.40;;;;;;;;;;6247245;28;20057;-68
2024/01/21 03:05:47;;;;;;;89.55;32.95;;;;;;;;;;6251468;28;20049;-68
2024/01/21 03:08:48;;;;;;;63.08;26.08;;;;;;;;;;6249580;28;20045;-67
2024/01/21 03:11:49;;;;;;;49.17;21.80;;;;;;;;;;6251017;28;20058;-68
2024/01/21 03:14:49;;;;;;;42.33;16.77;;;;;;;;;;6251876;28;20128;-68
2024/01/21 03:17:50;;;;;;;43.90;16.73;;;;;;;;;;6251347;28;20041;-68
2024/01/21 03:20:51;;;;;;;38.95;16.42;;;;;;;;;;6246079;28;20038;-68
2024/01/21 03:23:51;;;;;;;40.42;16.77;;;;;;;;;;6251049;28;20049;-68
2024/01/21 03:26:53;;;;;;;38.35;16.35;;;;;;;;;;6250121;28;20157;-68
2024/01/21 03:29:55;;;;;;;38.42;15.70;;;;;;;;;;6250905;28;20048;-68
2024/01/21 03:32:55;;;;;;;;;;;;;;;;;;6244629;28;20033;-68
2024/01/21 03:35:56;;;;;;;28.30;12.63;;;;;;;;;;6251632;28;20287;-68
2024/01/21 03:38:57;;;;;;;29.98;11.95;;;;;;;;;;6250532;28;20128;-68
2024/01/21 03:41:58;;;;;;;27.10;11.52;;;;;;;;;;6249230;28;20732;-67
2024/01/21 03:44:58;;;;;;;30.73;12.18;;;;;;;;;;6249683;28;20052;-68
2024/01/21 03:47:59;;;;;;;27.77;12.38;;;;;;;;;;6248242;28;20065;-67
2024/01/21 03:51:00;;;;;;;29.23;13.15;;;;;;;;;;6247283;28;20720;-68
2024/01/21 03:54:01;;;;;;;31.20;14.45;;;;;;;;;;6247599;28;20049;-67
2024/01/21 03:57:02;;;;;;;37.88;15.98;;;;;;;;;;6248702;28;20469;-67
2024/01/21 04:00:04;;;;;;;36.80;15.55;;;;;;;;;;6247285;28;20052;-67
2024/01/21 04:03:04;;;;;;;;;;;;;;;;;;6253899;28;20056;-67
2024/01/21 04:06:05;;;;;;;30.13;13.85;;;;;;;;;;6240596;28;19921;-68
2024/01/21 04:09:06;;;;;;;29.48;13.05;;;;;;;;;;6248597;28;20412;-68
2024/01/21 04:12:07;;;;;;;29.90;12.77;;;;;;;;;;6244167;28;20061;-68
2024/01/21 04:15:08;;;;;;;33.17;14.50;;;;;;;;;;6247489;28;20050;-67
2024/01/21 04:18:09;;;;;;;45.08;16.75;;;;;;;;;;6248497;28;20045;-68
2024/01/21 04:21:10;;;;;;;40.38;15.02;;;;;;;;;;6239354;28;20057;-68
2024/01/21 04:24:10;;;;;;;37.33;15.20;;;;;;;;;;6257127;28;20048;-67
2024/01/21 04:27:11;;;;;;;32.22;14.20;;;;;;;;;;6247902;28;20085;-68
2024/01/21 04:30:12;;;;;;;32.88;14.05;;;;;;;;;;6249671;28;20049;-68
2024/01/21 04:33:13;;;;;;;28.45;12.57;;;;;;;;;;6236532;28;20053;-68
2024/01/21 04:36:20;;;;;;;35.47;14.95;;;;;;;;;;6251080;28;20103;-68
2024/01/21 04:39:22;;;;;;;38.92;14.90;;;;;;;;;;6236829;28;20037;-68
2024/01/21 04:42:22;;;;;;;42.95;15.93;;;;;;;;;;6238019;28;20045;-68
2024/01/21 04:45:23;;;;;;;39.85;16.67;;;;;;;;;;6235327;28;20056;-68
2024/01/21 04:48:23;;;;;;;41.85;16.33;;;;;;;;;;6236739;28;20484;-68
2024/01/21 04:51:24;;;;;;;39.25;15.73;;;;;;;;;;6238721;28;20057;-68
2024/01/21 04:54:25;;;;;;;37.95;16.90;;;;;;;;;;6239700;28;20095;-68
2024/01/21 04:57:29;;;;;;;36.97;16.83;;;;;;;;;;6239080;28;20053;-68
2024/01/21 05:00:29;;;;;;;39.65;16.65;;;;;;;;;;6240219;28;20103;-68
2024/01/21 05:03:30;;;;;;;36.25;15.30;;;;;;;;;;6237724;28;20876;-68
2024/01/21 05:06:31;;;;;;;33.33;14.98;;;;;;;;;;6239102;28;20045;-68
2024/01/21 05:09:31;;;;;;;35.67;15.07;;;;;;;;;;6239266;28;20099;-67
2024/01/21 05:12:32;;;;;;;32.38;14.98;;;;;;;;;;6240941;28;20115;-68
2024/01/21 05:15:33;;;;;;;30.15;13.38;;;;;;;;;;6235778;28;20054;-68
2024/01/21 05:18:33;;;;;;;29.73;13.60;;;;;;;;;;6240116;28;20049;-68
2024/01/21 05:21:34;;;;;;;36.08;14.63;;;;;;;;;;6253319;28;20542;-68
2024/01/21 05:24:35;;;;;;;46.38;17.13;;;;;;;;;;6238989;28;20054;-68
2024/01/21 05:27:36;;;;;;;48.38;18.95;;;;;;;;;;6239889;28;20053;-68
2024/01/21 05:30:37;;;;;;;46.35;17.73;;;;;;;;;;6241321;28;20401;-68
2024/01/21 05:33:40;;;;;;;42.30;17.05;;;;;;;;;;6238723;28;20045;-68
2024/01/21 05:36:42;;;;;;;41.85;17.85;;;;;;;;;;6238965;28;20416;-67
2024/01/21 05:39:42;;;;;;;45.72;16.17;;;;;;;;;;6240629;28;20764;-68
2024/01/21 05:42:43;;;;;;;34.55;14.88;;;;;;;;;;6238717;28;20057;-68
2024/01/21 05:45:44;;;;;;;37.92;14.98;;;;;;;;;;6237755;28;20057;-68
2024/01/21 05:48:45;;;;;;;35.38;14.50;;;;;;;;;;6237768;28;20554;-68
2024/01/21 05:51:46;;;;;;;33.88;13.93;;;;;;;;;;6236479;28;20389;-68
2024/01/21 05:54:47;;;;;;;32.13;14.32;;;;;;;;;;6238459;28;20052;-67
2024/01/21 05:57:48;;;;;;;34.85;14.68;;;;;;;;;;6244354;28;20054;-68
2024/01/21 06:00:48;;;;;;;33.30;14.85;;;;;;;;;;6243960;28;20037;-68
2024/01/21 06:03:49;;;;;;;33.10;15.02;;;;;;;;;;6242726;28;20045;-68
2024/01/21 06:06:50;;;;;;;34.30;15.77;;;;;;;;;;6243174;28;20508;-68
2024/01/21 06:09:50;;;;;;;38.58;16.25;;;;;;;;;;6244021;28;20076;-68
2024/01/21 06:12:51;;;;;;;32.70;15.38;;;;;;;;;;6241098;28;20053;-68
2024/01/21 06:15:52;;;;;;;27.10;13.18;;;;;;;;;;6243934;28;20049;-67
2024/01/21 06:18:52;;;;;;;30.15;13.40;;;;;;;;;;6243053;28;20049;-68
2024/01/21 06:21:55;;;;;;;27.65;12.70;;;;;;;;;;6217742;28;20046;-68
2024/01/21 06:24:56;;;;;;;29.30;13.23;;;;;;;;;;6239483;28;20539;-68
2024/01/21 06:27:57;;;;;;;31.98;12.38;;;;;;;;;;6242836;28;20049;-68
2024/01/21 06:30:58;;;;;;;26.73;12.00;;;;;;;;;;6243911;28;20060;-68
2024/01/21 06:33:59;;;;;;;24.73;11.65;;;;;;;;;;6241755;28;20049;-68
2024/01/21 06:36:59;;;;;;;25.25;12.20;;;;;;;;;;6243534;28;20054;-68
2024/01/21 06:40:00;;;;;;;26.83;12.40;;;;;;;;;;6243172;28;20045;-67
2024/01/21 06:43:01;;;;;;;24.40;11.60;;;;;;;;;;6241251;28;20049;-68
2024/01/21 06:46:02;;;;;;;24.55;11.77;;;;;;;;;;6238337;28;20077;-67
2024/01/21 06:49:03;;;;;;;26.80;11.77;;;;;;;;;;6238973;28;20058;-67
2024/01/21 06:52:07;;;;;;;25.55;10.68;;;;;;;;;;6240153;28;20045;-67
2024/01/21 06:55:08;;;;;;;23.45;10.73;;;;;;;;;;6240201;28;20790;-67
2024/01/21 06:58:09;;;;;;;22.33;11.93;;;;;;;;;;6240112;28;20057;-67
2024/01/21 07:01:10;;;;;;;25.00;11.27;;;;;;;;;;6241096;28;20344;-67
2024/01/21 07:04:11;;;;;;;25.92;11.25;;;;;;;;;;6240892;28;20064;-67
2024/01/21 07:07:11;;;;;;;35.28;14.07;;;;;;;;;;6242049;28;20049;-67
2024/01/21 07:10:13;;;;;;;53.58;18.60;;;;;;;;;;6242948;28;20099;-66
2024/01/21 07:13:14;;;;;;;48.03;17.42;;;;;;;;;;6240969;28;20484;-67
2024/01/21 07:16:14;;;;;;;30.08;13.25;;;;;;;;;;6242582;28;20095;-67
2024/01/21 07:19:15;;;;;;;28.35;13.20;;;;;;;;;;6242643;28;20045;-67
2024/01/21 07:22:16;;;;;;;28.77;12.77;;;;;;;;;;6241563;28;20195;-67
2024/01/21 07:25:16;;;;;;;26.90;12.07;;;;;;;;;;6241725;28;20041;-67
2024/01/21 07:28:17;;;;;;;26.85;12.82;;;;;;;;;;6240718;28;20057;-67
2024/01/21 07:31:18;;;;;;;31.23;12.57;;;;;;;;;;6240422;28;20046;-66
2024/01/21 07:34:19;;;;;;;28.33;12.75;;;;;;;;;;6239146;28;20045;-66
2024/01/21 07:37:20;;;;;;;35.05;12.75;;;;;;;;;;6241762;28;20049;-67
2024/01/21 07:40:21;;;;;;;54.20;16.80;;;;;;;;;;6240793;28;20048;-67
2024/01/21 07:43:21;;;;;;;50.63;16.48;;;;;;;;;;6242438;28;20056;-67
2024/01/21 07:46:22;;;;;;;38.67;15.05;;;;;;;;;;6240328;28;20049;-67
2024/01/21 07:49:23;;;;;;;34.63;13.63;;;;;;;;;;6241721;28;20076;-66
2024/01/21 07:52:24;;;;;;;39.13;15.02;;;;;;;;;;6240735;28;20037;-66
2024/01/21 07:55:24;;;;;;;59.22;20.30;;;;;;;;;;6240902;28;20554;-67
2024/01/21 07:58:25;;;;;;;62.25;23.35;;;;;;;;;;6241262;28;20777;-67
2024/01/21 08:01:25;;;;;;;54.08;20.77;;;;;;;;;;6241944;28;20132;-67
2024/01/21 08:04:26;;;;;;;35.88;14.93;;;;;;;;;;6239827;28;20265;-67
2024/01/21 08:07:28;;;;;;;29.38;13.02;;;;;;;;;;6237091;28;20052;-67
2024/01/21 08:10:28;;;;;;;24.88;13.10;;;;;;;;;;6241419;28;20045;-67
2024/01/21 08:13:29;;;;;;;35.92;14.75;;;;;;;;;;6237937;28;20052;-67
2024/01/21 08:16:30;;;;;;;41.20;15.85;;;;;;;;;;6241373;28;20046;-67
2024/01/21 08:19:36;;;;;;;34.53;13.82;;;;;;;;;;6240441;28;20403;-67
2024/01/21 08:22:37;;;;;;;39.55;16.73;;;;;;;;;;6227732;28;20050;-67
2024/01/21 08:25:38;;;;;;;61.00;20.08;;;;;;;;;;6240110;28;20064;-66
2024/01/21 08:28:39;;;;;;;36.58;15.32;;;;;;;;;;6240803;28;20062;-67
2024/01/21 08:31:46;;;;;;;37.35;15.75;;;;;;;;;;6237392;28;20050;-67
2024/01/21 08:34:47;;;;;;;37.17;15.43;;;;;;;;;;6236316;28;20037;-67
2024/01/21 08:37:47;;;;;;;37.70;14.52;;;;;;;;;;6242338;28;20489;-67
2024/01/21 08:40:48;;;;;;;34.10;14.00;;;;;;;;;;6240513;28;20390;-67
2024/01/21 08:43:49;;;;;;;36.30;14.57;;;;;;;;;;6237469;28;20049;-67
2024/01/21 08:46:50;;;;;;;28.85;12.15;;;;;;;;;;6241668;28;20095;-67
2024/01/21 08:49:50;;;;;;;27.95;11.68;;;;;;;;;;6240417;28;20049;-67
2024/01/21 08:52:51;;;;;;;31.30;13.05;;;;;;;;;;6238030;28;20042;-67
2024/01/21 08:55:52;;;;;;;26.67;11.95;;;;;;;;;;6239123;28;20045;-67
2024/01/21 08:58:53;;;;;;;41.30;15.60;;;;;;;;;;6239779;28;20045;-67
2024/01/21 09:01:54;;;;;;;28.52;12.60;;;;;;;;;;6240415;28;20103;-67
2024/01/21 09:04:56;;;;;;;25.13;10.82;;;;;;;;;;6234772;28;20045;-68
2024/01/21 09:07:56;;;;;;;27.08;12.68;;;;;;;;;;6240129;28;20050;-68
2024/01/21 09:10:57;;;;;;;28.92;12.65;;;;;;;;;;6240147;28;20404;-67
2024/01/21 09:13:58;;;;;;;33.42;13.80;;;;;;;;;;6238575;28;20049;-67
2024/01/21 09:16:59;;;;;;;22.42;10.82;;;;;;;;;;6238146;28;20045;-67
2024/01/21 09:19:59;;;;;;;24.52;10.98;;;;;;;;;;6239149;28;20046;-66
2024/01/21 09:23:00;;;;;;;27.30;10.63;;;;;;;;;;6234444;28;20056;-67
2024/01/21 09:26:01;;;;;;;24.75;11.50;;;;;;;;;;6237679;28;20046;-67
2024/01/21 09:29:02;;;;;;;44.78;16.13;;;;;;;;;;6239558;28;20401;-67
2024/01/21 09:32:03;;;;;;;23.85;11.15;;;;;;;;;;6242172;28;20053;-66
2024/01/21 09:35:04;;;;;;;29.40;11.68;;;;;;;;;;6245143;28;20821;-66
2024/01/21 09:38:04;;;;;;;31.50;12.80;;;;;;;;;;6246575;28;20103;-67
2024/01/21 09:41:13;;;;;;;33.13;14.02;;;;;;;;;;6235227;28;20042;-67
2024/01/21 09:44:14;;;;;;;23.45;11.60;;;;;;;;;;6239876;28;20511;-67
2024/01/21 09:47:16;;;;;;;25.17;11.40;;;;;;;;;;6225657;28;20053;-65
2024/01/21 09:50:19;;;;;;;28.58;12.40;;;;;;;;;;6238656;28;20396;-67
2024/01/21 09:53:22;;;;;;;35.60;16.40;;;;;;;;;;6231224;28;20050;-85
2024/01/21 09:56:22;;;;;;;37.33;16.85;;;;;;;;;;6237866;28;20419;-81
2024/01/21 09:59:24;;;;;;;35.67;15.88;;;;;;;;;;6244844;28;20555;-71
2024/01/21 10:02:25;;;;;;;36.53;17.42;;;;;;;;;;6236206;28;20124;-85
2024/01/21 10:05:26;;;;;;;52.55;20.48;;;;;;;;;;6234548;28;20045;-69
2024/01/21 10:08:28;;;;;;;40.25;17.90;;;;;;;;;;6244993;28;20072;-71
2024/01/21 10:11:30;;;;;;;35.22;16.63;;;;;;;;;;6240930;28;20052;-66
2024/01/21 10:14:33;;;;;;;37.90;17.02;;;;;;;;;;6244152;28;20096;-68
2024/01/21 10:17:34;;;;;;;34.72;15.32;;;;;;;;;;6244573;28;20503;-66
2024/01/21 10:20:36;;;;;;;44.28;18.58;;;;;;;;;;6243829;28;20049;-67
2024/01/21 10:23:37;;;;;;;34.33;14.40;;;;;;;;;;6244149;28;20049;-67
2024/01/21 10:26:41;;;;;;;34.70;14.30;;;;;;;;;;6243919;28;20057;-69
2024/01/21 10:29:46;;;;;;;40.50;15.45;;;;;;;;;;6240928;28;20417;-68
2024/01/21 10:32:46;;;;;;;30.98;13.20;;;;;;;;;;6233521;28;20045;-72
2024/01/21 10:35:48;;;;;;;26.02;11.52;;;;;;;;;;6236449;28;20445;-72
2024/01/21 10:38:49;;;;;;;41.58;13.65;;;;;;;;;;6229392;28;20046;-74
2024/01/21 10:41:50;;;;;;;32.03;12.90;;;;;;;;;;6228178;28;20053;-65
2024/01/21 10:44:52;;;;;;;29.17;13.30;;;;;;;;;;6230498;28;20060;-67
2024/01/21 10:47:54;;;;;;;29.50;12.80;;;;;;;;;;6231472;28;20570;-74
2024/01/21 10:50:55;;;;;;;30.43;13.37;;;;;;;;;;6234925;28;20049;-68
2024/01/21 10:53:59;;;;;;;26.58;13.00;;;;;;;;;;6233894;28;20455;-63
2024/01/21 10:57:01;;;;;;;29.00;12.57;;;;;;;;;;6233773;28;20593;-62
2024/01/21 11:00:03;;;;;;;41.42;19.17;;;;;;;;;;6232328;28;20562;-70
2024/01/21 11:03:25;;;;;;;30.77;12.90;;;;;;;;;;6231938;28;20081;-67
2024/01/21 11:06:26;;;;;;;25.07;11.60;;;;;;;;;;6233068;28;20038;-71
2024/01/21 11:09:29;;;;;;;25.27;12.43;;;;;;;;;;6231653;28;20501;-68
2024/01/21 11:12:29;;;;;;;23.83;11.38;;;;;;;;;;6234296;28;20058;-67
2024/01/21 11:15:30;;;;;;;26.27;11.38;;;;;;;;;;6233308;28;20049;-70
2024/01/21 11:18:31;;;;;;;28.25;13.23;;;;;;;;;;6231051;28;20053;-64
2024/01/21 11:21:36;;;;;;;30.00;14.55;;;;;;;;;;6234334;28;20045;-70
2024/01/21 11:24:38;;;;;;;29.67;13.20;;;;;;;;;;6233971;28;20050;-67
2024/01/21 11:27:38;;;;;;;27.10;12.57;;;;;;;;;;6230014;28;20153;-67
2024/01/21 11:30:40;;;;;;;23.27;11.27;;;;;;;;;;6232997;28;20041;-67
2024/01/21 11:33:41;;;;;;;24.58;11.10;;;;;;;;;;6232418;28;20045;-68
2024/01/21 11:36:43;;;;;;;28.50;11.63;;;;;;;;;;6232188;28;20163;-67
2024/01/21 11:39:44;;;;;;;25.90;12.10;;;;;;;;;;6231150;28;21084;-68
2024/01/21 11:42:50;;;;;;;22.25;11.07;;;;;;;;;;6234052;28;20103;-64
2024/01/21 11:45:50;;;;;;;24.38;11.68;;;;;;;;;;6233126;28;20055;-66
2024/01/21 11:48:51;;;;;;;27.33;12.38;;;;;;;;;;6228736;28;20587;-64
2024/01/21 11:51:52;;;;;;;25.70;11.98;;;;;;;;;;6232073;28;20057;-67
2024/01/21 11:54:53;;;;;;;30.98;13.02;;;;;;;;;;6232518;28;20046;-68
2024/01/21 11:57:54;;;;;;;26.77;12.40;;;;;;;;;;6226159;28;20061;-66
2024/01/21 12:00:55;;;;;;;30.27;11.48;;;;;;;;;;6232983;28;20087;-65
2024/01/21 12:03:56;;;;;;;26.92;12.00;;;;;;;;;;6233246;28;20489;-68
2024/01/21 12:06:57;;;;;;;27.65;11.95;;;;;;;;;;6231842;28;20660;-65
2024/01/21 12:09:58;;;;;;;31.60;12.00;;;;;;;;;;6230438;28;20127;-65
2024/01/21 12:12:59;;;;;;;32.10;13.10;;;;;;;;;;6231797;28;20552;-68
2024/01/21 12:15:59;;;;;;;30.70;12.60;;;;;;;;;;6232105;28;20390;-67
2024/01/21 12:19:01;;;;;;;23.20;11.82;;;;;;;;;;6229423;28;20041;-66
2024/01/21 12:22:02;;;;;;;33.80;13.32;;;;;;;;;;6231538;28;20094;-63
2024/01/21 12:25:03;;;;;;;28.35;12.25;;;;;;;;;;6230968;28;20061;-64
2024/01/21 12:28:04;;;;;;;27.95;12.05;;;;;;;;;;6226337;28;20061;-72
2024/01/21 12:31:05;;;;;;;24.80;11.18;;;;;;;;;;6231917;28;20084;-71
2024/01/21 12:34:08;;;;;;;24.45;11.45;;;;;;;;;;6231830;28;20578;-71
2024/01/21 12:37:12;;;;;;;25.92;11.35;;;;;;;;;;6231423;28;20050;-71
2024/01/21 12:40:13;;;;;;;23.50;11.05;;;;;;;;;;6230457;28;20057;-70
2024/01/21 12:43:16;;;;;;;26.73;12.07;;;;;;;;;;6231925;28;20505;-65
2024/01/21 12:46:19;;;;;;;25.10;11.57;;;;;;;;;;6230551;28;20053;-75
2024/01/21 12:49:19;;;;;;;24.13;10.88;;;;;;;;;;6233428;28;20049;-74
2024/01/21 12:52:20;;;;;;;23.33;11.10;;;;;;;;;;6232173;28;20045;-74
2024/01/21 12:55:21;;;;;;;32.28;10.68;;;;;;;;;;6235061;28;20045;-66
2024/01/21 12:58:22;;;;;;;21.40;9.85;;;;;;;;;;6227921;28;20138;-74
2024/01/21 13:01:23;;;;;;;29.33;11.50;;;;;;;;;;6230743;28;20754;-74
2024/01/21 13:04:24;;;;;;;25.63;11.73;;;;;;;;;;6229568;28;20057;-73
2024/01/21 13:07:27;;;;;;;26.83;12.68;;;;;;;;;;6225576;28;20045;-73
2024/01/21 13:10:28;;;;;;;17.35;8.70;;;;;;;;;;6225038;28;20089;-73
2024/01/21 13:13:30;;;;;;;15.82;7.85;;;;;;;;;;6229238;28;20547;-74
2024/01/21 13:16:30;;;;;;;19.50;8.73;;;;;;;;;;6225098;28;20452;-72
2024/01/21 13:19:31;;;;;;;21.75;9.98;;;;;;;;;;6224913;28;20361;-74
2024/01/21 13:22:32;;;;;;;25.45;12.45;;;;;;;;;;6225522;28;20056;-75
2024/01/21 13:25:35;;;;;;;26.23;12.95;;;;;;;;;;6229142;28;20049;-73
2024/01/21 13:32:14;;;;;;;22.50;10.25;;;;;;;;;;6180281;28;20053;-73
2024/01/21 13:35:15;;;;;;;22.77;9.85;;;;;;;;;;6176310;28;20063;-72
2024/01/21 13:38:16;;;;;;;19.48;9.07;;;;;;;;;;6222134;28;20412;-74
2024/01/21 13:41:17;;;;;;;39.53;12.18;;;;;;;;;;6226949;28;20192;-74
2024/01/21 13:44:17;;;;;;;23.40;9.93;;;;;;;;;;6226593;28;20064;-75
2024/01/21 13:47:18;;;;;;;21.92;10.02;;;;;;;;;;6238216;28;20047;-73
2024/01/21 13:50:19;;;;;;;22.90;9.98;;;;;;;;;;6225248;28;20099;-73
2024/01/21 13:53:20;;;;;;;17.98;8.45;;;;;;;;;;6229832;28;20192;-73
2024/01/21 13:56:20;;;;;;;19.17;7.80;;;;;;;;;;6233486;28;20046;-73
2024/01/21 13:59:21;;;;;;;21.95;9.75;;;;;;;;;;6225059;28;20476;-73
2024/01/21 14:02:22;;;;;;;26.17;10.73;;;;;;;;;;6225403;28;20207;-72
2024/01/21 14:05:24;;;;;;;28.35;10.73;;;;;;;;;;6225142;28;20057;-73
2024/01/21 14:08:25;;;;;;;31.38;13.32;;;;;;;;;;6225448;28;20056;-74
2024/01/21 14:11:25;;;;;;;50.42;19.23;;;;;;;;;;6228627;28;20053;-73
2024/01/21 14:14:26;;;;;;;39.97;16.13;;;;;;;;;;6230220;28;20080;-72
2024/01/21 14:17:28;;;;;;;87.32;33.40;;;;;;;;;;6230076;28;20120;-72
2024/01/21 14:20:29;;;;;;;147.32;51.22;;;;;;;;;;6231624;28;20161;-73
2024/01/21 14:23:29;;;;;;;28.73;11.82;;;;;;;;;;6237271;28;20410;-70
2024/01/21 14:26:38;;;;;;;24.90;10.15;;;;;;;;;;6240899;28;20056;-72
2024/01/21 14:29:42;;;;;;;27.38;12.35;;;;;;;;;;6242359;28;20255;-72
2024/01/21 14:32:44;;;;;;;36.78;15.05;;;;;;;;;;6239883;28;20053;-73
2024/01/21 14:35:46;;;;;;;83.88;32.30;;;;;;;;;;6241256;28;20041;-73
2024/01/21 14:38:47;;;;;;;211.77;80.13;;;;;;;;;;6241125;28;20060;-69
2024/01/21 14:41:47;;;;;;;103.80;45.17;;;;;;;;;;6238972;28;20049;-69
2024/01/21 14:44:48;;;;;;;39.90;15.77;;;;;;;;;;6237898;28;20049;-73
2024/01/21 14:47:49;;;;;;;53.95;19.98;;;;;;;;;;6240898;28;20053;-71
2024/01/21 14:50:50;;;;;;;46.33;17.88;;;;;;;;;;6238623;28;20606;-73
2024/01/21 14:53:51;;;;;;;45.85;18.42;;;;;;;;;;6241104;28;20041;-72
2024/01/21 14:56:52;;;;;;;39.55;17.77;;;;;;;;;;6243648;28;20049;-71
2024/01/21 14:59:53;;;;;;;111.68;48.45;;;;;;;;;;6242003;28;20056;-71
2024/01/21 15:02:54;;;;;;;114.28;51.55;;;;;;;;;;6241646;28;20159;-71
2024/01/21 15:05:55;;;;;;;78.45;34.28;;;;;;;;;;6242023;28;20045;-71
2024/01/21 15:08:58;;;;;;;52.53;24.77;;;;;;;;;;6242343;28;20057;-70
2024/01/21 15:11:58;;;;;;;50.72;20.40;;;;;;;;;;6237857;28;20048;-72
2024/01/21 15:15:25;;;;;;;37.53;18.40;;;;;;;;;;6243338;28;20050;-70
2024/01/21 15:18:28;;;;;;;41.00;18.33;;;;;;;;;;6242045;28;20140;-73
2024/01/21 15:21:32;;;;;;;42.63;18.45;;;;;;;;;;6237778;28;20057;-74
2024/01/21 15:24:33;;;;;;;42.20;17.42;;;;;;;;;;6241209;28;20429;-71
2024/01/21 15:27:34;;;;;;;36.70;16.73;;;;;;;;;;6241115;28;20393;-73
2024/01/21 15:30:34;;;;;;;46.67;19.60;;;;;;;;;;6239211;28;20120;-73
2024/01/21 15:33:36;;;;;;;55.22;23.30;;;;;;;;;;6242050;28;20052;-72
2024/01/21 15:36:37;;;;;;;63.78;26.00;;;;;;;;;;6242073;28;20516;-74
2024/01/21 15:39:38;;;;;;;65.05;26.77;;;;;;;;;;6241143;28;20056;-73
2024/01/21 15:42:40;;;;;;;63.35;27.08;;;;;;;;;;6237519;28;20054;-74
2024/01/21 15:45:41;;;;;;;57.42;22.90;;;;;;;;;;6238411;28;20045;-74
2024/01/21 15:48:41;;;;;;;59.58;24.45;;;;;;;;;;6241629;28;20408;-76
2024/01/21 15:51:42;;;;;;;68.80;29.13;;;;;;;;;;6241052;28;20386;-75
2024/01/21 15:54:43;;;;;;;83.88;34.38;;;;;;;;;;6240666;28;20049;-73
2024/01/21 15:57:44;;;;;;;83.38;33.55;;;;;;;;;;6241556;28;20041;-73
2024/01/21 16:00:46;;;;;;;70.22;30.08;;;;;;;;;;6240764;28;20053;-75
2024/01/21 16:03:48;;;;;;;65.97;29.40;;;;;;;;;;6238675;28;20071;-73
2024/01/21 16:06:49;;;;;;;57.92;27.50;;;;;;;;;;6238581;28;20055;-73
2024/01/21 16:09:50;;;;;;;55.65;25.30;;;;;;;;;;6227662;28;20053;-66
2024/01/21 16:12:51;;;;;;;59.40;24.50;;;;;;;;;;6227483;28;20045;-71
2024/01/21 16:15:52;;;;;;;62.30;29.30;;;;;;;;;;6231201;28;20092;-70
2024/01/21 16:18:53;;;;;;;63.70;26.98;;;;;;;;;;6230226;28;20314;-70
2024/01/21 16:21:55;;;;;;;53.28;25.17;;;;;;;;;;6231989;28;20057;-68
2024/01/21 16:24:56;;;;;;;62.47;28.55;;;;;;;;;;6230390;28;20063;-70
2024/01/21 16:27:57;;;;;;;64.07;28.08;;;;;;;;;;6231755;28;20525;-73
2024/01/21 16:30:58;;;;;;;56.95;26.08;;;;;;;;;;6231865;28;20033;-74
2024/01/21 16:33:59;;;;;;;55.22;24.27;;;;;;;;;;6230744;28;20076;-77
2024/01/21 16:36:59;;;;;;;60.17;27.00;;;;;;;;;;6233499;28;20049;-66
2024/01/21 16:40:01;;;;;;;60.85;28.00;;;;;;;;;;6231933;28;20119;-68
2024/01/21 16:43:01;;;;;;;66.03;29.50;;;;;;;;;;6230127;28;20048;-74
2024/01/21 16:46:03;;;;;;;63.67;29.30;;;;;;;;;;6226900;28;20058;-70
2024/01/21 16:49:04;;;;;;;65.38;31.13;;;;;;;;;;6229739;28;20084;-69
2024/01/21 16:52:14;;;;;;;63.65;31.65;;;;;;;;;;6232468;28;20065;-66
2024/01/21 16:55:15;;;;;;;79.93;36.65;;;;;;;;;;6237509;28;20061;-71
2024/01/21 16:58:16;;;;;;;71.00;34.95;;;;;;;;;;6232416;28;20107;-69
2024/01/21 17:01:19;;;;;;;71.28;34.20;;;;;;;;;;6231500;28;20484;-70
2024/01/21 17:04:21;;;;;;;78.25;35.60;;;;;;;;;;6230315;28;20400;-73
2024/01/21 17:07:21;;;;;;;80.97;35.08;;;;;;;;;;6229985;28;20052;-74
2024/01/21 17:10:33;;;;;;;77.47;35.72;;;;;;;;;;6230041;28;20075;-69
2024/01/21 17:13:33;;;;;;;70.43;34.40;;;;;;;;;;6230479;28;20133;-71
2024/01/21 17:16:35;;;;;;;75.78;32.55;;;;;;;;;;6231478;28;20508;-71
2024/01/21 17:19:36;;;;;;;88.15;39.50;;;;;;;;;;6230320;28;20186;-74
2024/01/21 17:22:37;;;;;;;91.88;39.63;;;;;;;;;;6230850;28;20056;-74
2024/01/21 17:25:39;;;;;;;81.15;35.15;;;;;;;;;;6230994;28;20049;-74
2024/01/21 17:28:45;;;;;;;76.05;34.58;;;;;;;;;;6230584;28;20057;-71
2024/01/21 17:31:46;;;;;;;79.57;34.92;;;;;;;;;;6231724;28;20052;-75
2024/01/21 17:34:47;;;;;;;85.57;38.55;;;;;;;;;;6229260;28;20045;-69
2024/01/21 17:37:48;;;;;;;76.18;35.40;;;;;;;;;;6227108;28;20045;-72
2024/01/21 17:40:49;;;;;;;79.70;37.47;;;;;;;;;;6229566;28;20045;-72